sensor_id;sensor_type;location;lat;lon;timestamp;P1;durP1;ratioP1;P2;durP2;ratioP2
51006;SDS011;37034;47.886;-3.904;2022-09-27T00:02:00;22.93;;;3.70;;
51006;SDS011;37034;47.886;-3.904;2022-09-27T00:04:26;27.97;;;4.77;;
51006;SDS011;37034;47.886;-3.904;2022-09-27T00:06:52;22.00;;;3.25;;
51006;SDS011;37034;47.886;-3.904;2022-09-27T00:09:17;21.80;;;3.13;;
51006;SDS011;37034;47.886;-3.904;2022-09-27T00:11:43;27.10;;;3.70;;
51006;SDS011;37034;47.886;-3.904;2022-09-27T00:14:10;24.58;;;3.88;;
51006;SDS011;37034;47.886;-3.904;2022-09-27T00:16:38;20.13;;;3.53;;
51006;SDS011;37034;47.886;-3.904;2022-09-27T00:19:15;26.73;;;3.28;;
51006;SDS011;37034;47.886;-3.904;2022-09-27T00:21:42;23.92;;;3.42;;
51006;SDS011;37034;47.886;-3.904;2022-09-27T00:24:13;26.45;;;4.25;;
51006;SDS011;37034;47.886;-3.904;2022-09-27T00:26:41;21.23;;;3.50;;
51006;SDS011;37034;47.886;-3.904;2022-09-27T00:29:07;23.50;;;3.78;;
51006;SDS011;37034;47.886;-3.904;2022-09-27T00:31:35;21.70;;;3.20;;
51006;SDS011;37034;47.886;-3.904;2022-09-27T00:34:02;18.98;;;2.60;;
51006;SDS011;37034;47.886;-3.904;2022-09-27T00:36:29;18.55;;;3.42;;
51006;SDS011;37034;47.886;-3.904;2022-09-27T00:38:56;22.15;;;3.25;;
51006;SDS011;37034;47.886;-3.904;2022-09-27T00:41:32;16.20;;;3.13;;
51006;SDS011;37034;47.886;-3.904;2022-09-27T00:44:00;18.85;;;2.88;;
51006;SDS011;37034;47.886;-3.904;2022-09-27T00:46:34;21.35;;;2.85;;
51006;SDS011;37034;47.886;-3.904;2022-09-27T00:49:13;14.77;;;2.97;;
51006;SDS011;37034;47.886;-3.904;2022-09-27T00:52:01;25.02;;;3.53;;
51006;SDS011;37034;47.886;-3.904;2022-09-27T00:54:35;16.83;;;2.67;;
51006;SDS011;37034;47.886;-3.904;2022-09-27T00:57:04;24.15;;;3.28;;
51006;SDS011;37034;47.886;-3.904;2022-09-27T01:02:13;17.20;;;3.30;;
51006;SDS011;37034;47.886;-3.904;2022-09-27T01:04:39;18.10;;;2.55;;
51006;SDS011;37034;47.886;-3.904;2022-09-27T01:07:07;14.55;;;2.63;;
51006;SDS011;37034;47.886;-3.904;2022-09-27T01:09:33;13.07;;;2.13;;
51006;SDS011;37034;47.886;-3.904;2022-09-27T01:12:22;21.20;;;3.35;;
51006;SDS011;37034;47.886;-3.904;2022-09-27T01:17:54;19.38;;;3.05;;
51006;SDS011;37034;47.886;-3.904;2022-09-27T01:29:37;17.33;;;2.45;;
51006;SDS011;37034;47.886;-3.904;2022-09-27T01:32:11;19.38;;;3.10;;
51006;SDS011;37034;47.886;-3.904;2022-09-27T01:34:59;14.10;;;2.30;;
51006;SDS011;37034;47.886;-3.904;2022-09-27T01:45:33;14.32;;;2.70;;
51006;SDS011;37034;47.886;-3.904;2022-09-27T01:48:01;13.73;;;2.33;;
51006;SDS011;37034;47.886;-3.904;2022-09-27T01:50:40;18.60;;;2.75;;
51006;SDS011;37034;47.886;-3.904;2022-09-27T01:55:41;22.48;;;3.00;;
51006;SDS011;37034;47.886;-3.904;2022-09-27T02:00:33;14.97;;;2.63;;
51006;SDS011;37034;47.886;-3.904;2022-09-27T02:03:12;22.42;;;4.00;;
51006;SDS011;37034;47.886;-3.904;2022-09-27T02:05:53;22.27;;;3.38;;
51006;SDS011;37034;47.886;-3.904;2022-09-27T02:11:10;17.50;;;2.95;;
51006;SDS011;37034;47.886;-3.904;2022-09-27T02:13:39;20.35;;;3.25;;
51006;SDS011;37034;47.886;-3.904;2022-09-27T02:19:11;19.45;;;2.55;;
51006;SDS011;37034;47.886;-3.904;2022-09-27T02:24:27;19.92;;;2.65;;
51006;SDS011;37034;47.886;-3.904;2022-09-27T02:27:03;20.10;;;2.95;;
51006;SDS011;37034;47.886;-3.904;2022-09-27T02:29:37;15.50;;;2.30;;
51006;SDS011;37034;47.886;-3.904;2022-09-27T02:32:07;16.63;;;2.58;;
51006;SDS011;37034;47.886;-3.904;2022-09-27T02:34:33;18.53;;;2.93;;
51006;SDS011;37034;47.886;-3.904;2022-09-27T02:37:02;23.73;;;4.13;;
51006;SDS011;37034;47.886;-3.904;2022-09-27T02:39:27;21.80;;;2.92;;
51006;SDS011;37034;47.886;-3.904;2022-09-27T02:41:54;21.77;;;2.53;;
51006;SDS011;37034;47.886;-3.904;2022-09-27T02:44:22;14.55;;;2.60;;
51006;SDS011;37034;47.886;-3.904;2022-09-27T02:52:26;18.42;;;3.13;;
51006;SDS011;37034;47.886;-3.904;2022-09-27T02:58:23;17.98;;;2.85;;
51006;SDS011;37034;47.886;-3.904;2022-09-27T03:01:13;19.00;;;2.50;;
51006;SDS011;37034;47.886;-3.904;2022-09-27T03:03:52;19.20;;;2.35;;
51006;SDS011;37034;47.886;-3.904;2022-09-27T03:06:24;14.48;;;3.08;;
51006;SDS011;37034;47.886;-3.904;2022-09-27T03:08:51;13.27;;;1.90;;
51006;SDS011;37034;47.886;-3.904;2022-09-27T03:11:17;17.00;;;2.40;;
51006;SDS011;37034;47.886;-3.904;2022-09-27T03:13:43;22.30;;;2.30;;
51006;SDS011;37034;47.886;-3.904;2022-09-27T03:16:10;15.70;;;2.50;;
51006;SDS011;37034;47.886;-3.904;2022-09-27T03:18:36;19.25;;;2.53;;
51006;SDS011;37034;47.886;-3.904;2022-09-27T03:21:01;21.27;;;2.80;;
51006;SDS011;37034;47.886;-3.904;2022-09-27T03:23:27;13.95;;;2.30;;
51006;SDS011;37034;47.886;-3.904;2022-09-27T03:25:53;15.38;;;2.40;;
51006;SDS011;37034;47.886;-3.904;2022-09-27T03:28:19;14.97;;;2.20;;
51006;SDS011;37034;47.886;-3.904;2022-09-27T03:30:45;17.27;;;2.42;;
51006;SDS011;37034;47.886;-3.904;2022-09-27T03:33:11;14.20;;;2.92;;
51006;SDS011;37034;47.886;-3.904;2022-09-27T03:35:37;20.97;;;2.73;;
51006;SDS011;37034;47.886;-3.904;2022-09-27T03:38:04;13.75;;;2.15;;
51006;SDS011;37034;47.886;-3.904;2022-09-27T03:40:31;14.50;;;2.20;;
51006;SDS011;37034;47.886;-3.904;2022-09-27T03:42:56;15.13;;;2.35;;
51006;SDS011;37034;47.886;-3.904;2022-09-27T03:45:22;14.63;;;2.20;;
51006;SDS011;37034;47.886;-3.904;2022-09-27T03:47:48;22.27;;;2.73;;
51006;SDS011;37034;47.886;-3.904;2022-09-27T03:50:13;22.33;;;2.57;;
51006;SDS011;37034;47.886;-3.904;2022-09-27T03:52:41;20.42;;;2.58;;
51006;SDS011;37034;47.886;-3.904;2022-09-27T03:55:08;13.45;;;1.90;;
51006;SDS011;37034;47.886;-3.904;2022-09-27T03:57:34;16.98;;;2.70;;
51006;SDS011;37034;47.886;-3.904;2022-09-27T04:00:00;20.37;;;2.50;;
51006;SDS011;37034;47.886;-3.904;2022-09-27T04:02:26;19.73;;;3.05;;
51006;SDS011;37034;47.886;-3.904;2022-09-27T04:04:52;11.05;;;1.92;;
51006;SDS011;37034;47.886;-3.904;2022-09-27T04:07:18;24.77;;;3.17;;
51006;SDS011;37034;47.886;-3.904;2022-09-27T04:09:43;14.27;;;2.33;;
51006;SDS011;37034;47.886;-3.904;2022-09-27T04:12:11;17.95;;;2.63;;
51006;SDS011;37034;47.886;-3.904;2022-09-27T04:14:37;15.88;;;2.70;;
51006;SDS011;37034;47.886;-3.904;2022-09-27T04:17:02;18.70;;;2.60;;
51006;SDS011;37034;47.886;-3.904;2022-09-27T04:19:28;20.58;;;3.08;;
51006;SDS011;37034;47.886;-3.904;2022-09-27T04:21:54;19.80;;;2.77;;
51006;SDS011;37034;47.886;-3.904;2022-09-27T04:24:19;15.03;;;3.03;;
51006;SDS011;37034;47.886;-3.904;2022-09-27T04:26:45;19.13;;;2.40;;
51006;SDS011;37034;47.886;-3.904;2022-09-27T04:29:12;20.70;;;2.88;;
51006;SDS011;37034;47.886;-3.904;2022-09-27T04:31:38;20.67;;;3.30;;
51006;SDS011;37034;47.886;-3.904;2022-09-27T04:34:03;12.43;;;2.13;;
51006;SDS011;37034;47.886;-3.904;2022-09-27T04:36:29;16.83;;;2.47;;
51006;SDS011;37034;47.886;-3.904;2022-09-27T04:41:23;22.63;;;3.10;;
51006;SDS011;37034;47.886;-3.904;2022-09-27T04:43:50;22.85;;;3.30;;
51006;SDS011;37034;47.886;-3.904;2022-09-27T04:46:17;18.05;;;2.80;;
51006;SDS011;37034;47.886;-3.904;2022-09-27T04:48:44;15.80;;;2.60;;
51006;SDS011;37034;47.886;-3.904;2022-09-27T04:51:10;16.17;;;2.35;;
51006;SDS011;37034;47.886;-3.904;2022-09-27T04:53:35;22.15;;;3.72;;
51006;SDS011;37034;47.886;-3.904;2022-09-27T04:56:01;19.38;;;3.15;;
51006;SDS011;37034;47.886;-3.904;2022-09-27T04:58:30;15.05;;;2.83;;
51006;SDS011;37034;47.886;-3.904;2022-09-27T05:00:58;19.83;;;2.92;;
51006;SDS011;37034;47.886;-3.904;2022-09-27T05:03:24;19.00;;;2.83;;
51006;SDS011;37034;47.886;-3.904;2022-09-27T05:05:50;23.67;;;3.50;;
51006;SDS011;37034;47.886;-3.904;2022-09-27T05:08:16;14.65;;;2.30;;
51006;SDS011;37034;47.886;-3.904;2022-09-27T05:10:41;24.33;;;3.43;;
51006;SDS011;37034;47.886;-3.904;2022-09-27T05:13:07;19.27;;;3.10;;
51006;SDS011;37034;47.886;-3.904;2022-09-27T05:15:33;22.27;;;3.90;;
51006;SDS011;37034;47.886;-3.904;2022-09-27T05:17:59;21.35;;;3.22;;
51006;SDS011;37034;47.886;-3.904;2022-09-27T05:20:25;23.07;;;3.27;;
51006;SDS011;37034;47.886;-3.904;2022-09-27T05:22:51;28.25;;;3.58;;
51006;SDS011;37034;47.886;-3.904;2022-09-27T05:25:17;17.95;;;2.85;;
51006;SDS011;37034;47.886;-3.904;2022-09-27T05:27:43;22.75;;;4.10;;
51006;SDS011;37034;47.886;-3.904;2022-09-27T05:30:08;18.67;;;2.90;;
51006;SDS011;37034;47.886;-3.904;2022-09-27T05:32:35;24.35;;;3.38;;
51006;SDS011;37034;47.886;-3.904;2022-09-27T05:35:05;21.90;;;3.05;;
51006;SDS011;37034;47.886;-3.904;2022-09-27T05:37:31;23.67;;;3.50;;
51006;SDS011;37034;47.886;-3.904;2022-09-27T05:39:57;25.30;;;3.75;;
51006;SDS011;37034;47.886;-3.904;2022-09-27T05:42:23;22.27;;;3.63;;
51006;SDS011;37034;47.886;-3.904;2022-09-27T05:44:49;24.63;;;4.40;;
51006;SDS011;37034;47.886;-3.904;2022-09-27T05:47:14;22.13;;;4.13;;
51006;SDS011;37034;47.886;-3.904;2022-09-27T05:49:40;21.37;;;3.77;;
51006;SDS011;37034;47.886;-3.904;2022-09-27T05:52:06;24.20;;;3.30;;
51006;SDS011;37034;47.886;-3.904;2022-09-27T05:54:32;26.23;;;5.43;;
51006;SDS011;37034;47.886;-3.904;2022-09-27T05:56:58;23.70;;;4.68;;
51006;SDS011;37034;47.886;-3.904;2022-09-27T05:59:24;22.88;;;3.58;;
51006;SDS011;37034;47.886;-3.904;2022-09-27T06:01:51;30.17;;;4.20;;
51006;SDS011;37034;47.886;-3.904;2022-09-27T06:04:17;23.77;;;3.53;;
51006;SDS011;37034;47.886;-3.904;2022-09-27T06:06:43;28.70;;;4.80;;
51006;SDS011;37034;47.886;-3.904;2022-09-27T06:09:10;28.20;;;5.07;;
51006;SDS011;37034;47.886;-3.904;2022-09-27T06:11:36;28.58;;;4.05;;
51006;SDS011;37034;47.886;-3.904;2022-09-27T06:14:02;26.70;;;4.50;;
51006;SDS011;37034;47.886;-3.904;2022-09-27T06:16:28;26.98;;;3.72;;
51006;SDS011;37034;47.886;-3.904;2022-09-27T06:18:54;28.13;;;4.43;;
51006;SDS011;37034;47.886;-3.904;2022-09-27T06:21:20;22.87;;;4.00;;
51006;SDS011;37034;47.886;-3.904;2022-09-27T06:23:46;25.48;;;4.03;;
51006;SDS011;37034;47.886;-3.904;2022-09-27T06:26:11;26.03;;;3.97;;
51006;SDS011;37034;47.886;-3.904;2022-09-27T06:28:37;26.87;;;4.80;;
51006;SDS011;37034;47.886;-3.904;2022-09-27T06:31:06;36.50;;;4.37;;
51006;SDS011;37034;47.886;-3.904;2022-09-27T06:33:35;27.75;;;4.85;;
51006;SDS011;37034;47.886;-3.904;2022-09-27T06:36:02;30.35;;;4.82;;
51006;SDS011;37034;47.886;-3.904;2022-09-27T06:38:29;36.20;;;5.88;;
51006;SDS011;37034;47.886;-3.904;2022-09-27T06:40:55;39.65;;;7.82;;
51006;SDS011;37034;47.886;-3.904;2022-09-27T06:43:30;39.10;;;5.97;;
51006;SDS011;37034;47.886;-3.904;2022-09-27T06:45:58;40.28;;;5.68;;
51006;SDS011;37034;47.886;-3.904;2022-09-27T06:48:29;30.20;;;5.28;;
51006;SDS011;37034;47.886;-3.904;2022-09-27T06:51:00;39.42;;;5.90;;
51006;SDS011;37034;47.886;-3.904;2022-09-27T06:53:26;39.10;;;6.07;;
51006;SDS011;37034;47.886;-3.904;2022-09-27T06:55:56;30.73;;;5.50;;
51006;SDS011;37034;47.886;-3.904;2022-09-27T06:58:25;33.25;;;5.40;;
51006;SDS011;37034;47.886;-3.904;2022-09-27T07:01:10;30.98;;;4.85;;
51006;SDS011;37034;47.886;-3.904;2022-09-27T07:03:36;40.80;;;6.10;;
51006;SDS011;37034;47.886;-3.904;2022-09-27T07:06:05;36.50;;;5.78;;
51006;SDS011;37034;47.886;-3.904;2022-09-27T07:08:36;42.35;;;6.30;;
51006;SDS011;37034;47.886;-3.904;2022-09-27T07:11:03;32.08;;;5.68;;
51006;SDS011;37034;47.886;-3.904;2022-09-27T07:13:30;38.28;;;5.60;;
51006;SDS011;37034;47.886;-3.904;2022-09-27T07:15:58;33.40;;;5.57;;
51006;SDS011;37034;47.886;-3.904;2022-09-27T07:20:51;49.38;;;6.47;;
51006;SDS011;37034;47.886;-3.904;2022-09-27T07:23:17;35.60;;;6.13;;
51006;SDS011;37034;47.886;-3.904;2022-09-27T07:25:43;42.38;;;7.32;;
51006;SDS011;37034;47.886;-3.904;2022-09-27T07:28:13;38.37;;;7.30;;
51006;SDS011;37034;47.886;-3.904;2022-09-27T07:30:40;42.65;;;5.90;;
51006;SDS011;37034;47.886;-3.904;2022-09-27T07:33:06;16.70;;;2.35;;
51006;SDS011;37034;47.886;-3.904;2022-09-27T07:35:33;42.15;;;6.53;;
51006;SDS011;37034;47.886;-3.904;2022-09-27T07:38:01;44.90;;;6.53;;
51006;SDS011;37034;47.886;-3.904;2022-09-27T07:42:54;32.60;;;6.10;;
51006;SDS011;37034;47.886;-3.904;2022-09-27T07:45:20;45.65;;;8.32;;
51006;SDS011;37034;47.886;-3.904;2022-09-27T07:47:47;47.33;;;8.07;;
51006;SDS011;37034;47.886;-3.904;2022-09-27T07:50:13;37.47;;;6.80;;
51006;SDS011;37034;47.886;-3.904;2022-09-27T07:52:39;36.95;;;7.47;;
51006;SDS011;37034;47.886;-3.904;2022-09-27T07:55:07;35.92;;;6.22;;
51006;SDS011;37034;47.886;-3.904;2022-09-27T07:57:34;36.25;;;6.45;;
51006;SDS011;37034;47.886;-3.904;2022-09-27T08:00:01;32.60;;;5.57;;
51006;SDS011;37034;47.886;-3.904;2022-09-27T08:02:28;39.58;;;7.07;;
51006;SDS011;37034;47.886;-3.904;2022-09-27T08:04:57;48.70;;;8.25;;
51006;SDS011;37034;47.886;-3.904;2022-09-27T08:09:49;40.83;;;6.70;;
51006;SDS011;37034;47.886;-3.904;2022-09-27T08:12:15;50.07;;;8.97;;
51006;SDS011;37034;47.886;-3.904;2022-09-27T08:14:41;49.83;;;7.55;;
51006;SDS011;37034;47.886;-3.904;2022-09-27T08:17:09;47.25;;;6.65;;
51006;SDS011;37034;47.886;-3.904;2022-09-27T08:19:35;43.67;;;7.85;;
51006;SDS011;37034;47.886;-3.904;2022-09-27T08:22:01;39.83;;;6.72;;
51006;SDS011;37034;47.886;-3.904;2022-09-27T08:24:28;40.00;;;6.75;;
51006;SDS011;37034;47.886;-3.904;2022-09-27T08:26:53;41.43;;;6.90;;
51006;SDS011;37034;47.886;-3.904;2022-09-27T08:29:19;41.50;;;6.77;;
51006;SDS011;37034;47.886;-3.904;2022-09-27T08:31:45;36.90;;;6.57;;
51006;SDS011;37034;47.886;-3.904;2022-09-27T08:34:10;47.00;;;7.53;;
51006;SDS011;37034;47.886;-3.904;2022-09-27T08:36:36;39.42;;;6.68;;
51006;SDS011;37034;47.886;-3.904;2022-09-27T08:39:02;45.13;;;7.47;;
51006;SDS011;37034;47.886;-3.904;2022-09-27T08:47:05;44.05;;;7.32;;
51006;SDS011;37034;47.886;-3.904;2022-09-27T08:49:40;34.25;;;6.43;;
51006;SDS011;37034;47.886;-3.904;2022-09-27T08:52:22;34.58;;;6.10;;
51006;SDS011;37034;47.886;-3.904;2022-09-27T08:54:52;36.05;;;6.28;;
51006;SDS011;37034;47.886;-3.904;2022-09-27T08:57:21;38.92;;;6.85;;
51006;SDS011;37034;47.886;-3.904;2022-09-27T09:00:05;43.20;;;7.88;;
51006;SDS011;37034;47.886;-3.904;2022-09-27T09:02:33;38.10;;;6.82;;
51006;SDS011;37034;47.886;-3.904;2022-09-27T09:05:02;48.58;;;6.80;;
51006;SDS011;37034;47.886;-3.904;2022-09-27T09:07:59;40.80;;;6.63;;
51006;SDS011;37034;47.886;-3.904;2022-09-27T09:20:13;47.75;;;7.25;;
51006;SDS011;37034;47.886;-3.904;2022-09-27T09:31:18;43.65;;;7.88;;
51006;SDS011;37034;47.886;-3.904;2022-09-27T09:34:23;36.25;;;5.75;;
51006;SDS011;37034;47.886;-3.904;2022-09-27T09:37:03;41.00;;;6.70;;
51006;SDS011;37034;47.886;-3.904;2022-09-27T09:50:21;53.47;;;8.38;;
51006;SDS011;37034;47.886;-3.904;2022-09-27T09:52:55;41.03;;;6.97;;
51006;SDS011;37034;47.886;-3.904;2022-09-27T09:55:28;47.85;;;7.70;;
51006;SDS011;37034;47.886;-3.904;2022-09-27T09:58:03;50.45;;;7.47;;
51006;SDS011;37034;47.886;-3.904;2022-09-27T10:00:52;39.53;;;6.03;;
51006;SDS011;37034;47.886;-3.904;2022-09-27T10:03:23;49.63;;;8.27;;
51006;SDS011;37034;47.886;-3.904;2022-09-27T10:05:49;43.13;;;7.45;;
51006;SDS011;37034;47.886;-3.904;2022-09-27T10:08:18;39.35;;;6.95;;
51006;SDS011;37034;47.886;-3.904;2022-09-27T10:10:46;44.97;;;6.78;;
51006;SDS011;37034;47.886;-3.904;2022-09-27T10:13:14;34.97;;;6.28;;
51006;SDS011;37034;47.886;-3.904;2022-09-27T10:15:42;40.25;;;7.15;;
51006;SDS011;37034;47.886;-3.904;2022-09-27T10:18:18;37.35;;;7.60;;
51006;SDS011;37034;47.886;-3.904;2022-09-27T10:20:46;34.15;;;7.07;;
51006;SDS011;37034;47.886;-3.904;2022-09-27T10:23:17;26.27;;;5.38;;
51006;SDS011;37034;47.886;-3.904;2022-09-27T10:28:33;37.20;;;5.43;;
51006;SDS011;37034;47.886;-3.904;2022-09-27T10:31:03;32.20;;;4.85;;
51006;SDS011;37034;47.886;-3.904;2022-09-27T10:33:39;39.17;;;5.78;;
51006;SDS011;37034;47.886;-3.904;2022-09-27T10:36:30;30.02;;;5.38;;
51006;SDS011;37034;47.886;-3.904;2022-09-27T10:38:59;26.45;;;4.53;;
51006;SDS011;37034;47.886;-3.904;2022-09-27T10:41:35;28.38;;;4.75;;
51006;SDS011;37034;47.886;-3.904;2022-09-27T10:46:40;29.25;;;4.47;;
51006;SDS011;37034;47.886;-3.904;2022-09-27T10:52:12;32.70;;;5.80;;
51006;SDS011;37034;47.886;-3.904;2022-09-27T10:54:40;22.73;;;4.50;;
51006;SDS011;37034;47.886;-3.904;2022-09-27T10:59:39;28.02;;;6.38;;
51006;SDS011;37034;47.886;-3.904;2022-09-27T11:02:30;31.40;;;6.38;;
51006;SDS011;37034;47.886;-3.904;2022-09-27T11:07:38;30.35;;;5.72;;
51006;SDS011;37034;47.886;-3.904;2022-09-27T11:26:48;27.13;;;6.53;;
51006;SDS011;37034;47.886;-3.904;2022-09-27T11:35:04;20.80;;;5.60;;
51006;SDS011;37034;47.886;-3.904;2022-09-27T12:08:32;14.20;;;3.55;;
51006;SDS011;37034;47.886;-3.904;2022-09-27T12:11:08;17.20;;;3.63;;
51006;SDS011;37034;47.886;-3.904;2022-09-27T12:13:56;16.25;;;3.20;;
51006;SDS011;37034;47.886;-3.904;2022-09-27T12:16:27;12.60;;;3.55;;
51006;SDS011;37034;47.886;-3.904;2022-09-27T12:18:55;13.57;;;4.07;;
51006;SDS011;37034;47.886;-3.904;2022-09-27T12:21:23;11.80;;;2.33;;
51006;SDS011;37034;47.886;-3.904;2022-09-27T12:23:52;10.38;;;2.42;;
51006;SDS011;37034;47.886;-3.904;2022-09-27T12:39:44;10.77;;;1.85;;
51006;SDS011;37034;47.886;-3.904;2022-09-27T12:42:23;9.68;;;2.65;;
51006;SDS011;37034;47.886;-3.904;2022-09-27T12:44:54;7.13;;;1.65;;
51006;SDS011;37034;47.886;-3.904;2022-09-27T12:50:11;8.43;;;1.75;;
51006;SDS011;37034;47.886;-3.904;2022-09-27T12:52:53;7.82;;;1.70;;
51006;SDS011;37034;47.886;-3.904;2022-09-27T12:55:51;6.53;;;1.30;;
51006;SDS011;37034;47.886;-3.904;2022-09-27T13:01:33;7.13;;;1.70;;
51006;SDS011;37034;47.886;-3.904;2022-09-27T13:09:41;6.82;;;1.73;;
51006;SDS011;37034;47.886;-3.904;2022-09-27T13:12:14;7.85;;;1.83;;
51006;SDS011;37034;47.886;-3.904;2022-09-27T13:17:30;7.65;;;1.67;;
51006;SDS011;37034;47.886;-3.904;2022-09-27T13:20:31;8.85;;;1.60;;
51006;SDS011;37034;47.886;-3.904;2022-09-27T13:22:57;13.65;;;2.25;;
51006;SDS011;37034;47.886;-3.904;2022-09-27T13:42:29;13.77;;;2.42;;
51006;SDS011;37034;47.886;-3.904;2022-09-27T14:00:59;3.95;;;0.85;;
51006;SDS011;37034;47.886;-3.904;2022-09-27T14:03:30;9.05;;;1.70;;
51006;SDS011;37034;47.886;-3.904;2022-09-27T14:06:07;4.22;;;0.77;;
51006;SDS011;37034;47.886;-3.904;2022-09-27T14:08:45;5.80;;;1.00;;
51006;SDS011;37034;47.886;-3.904;2022-09-27T14:11:20;6.50;;;1.40;;
51006;SDS011;37034;47.886;-3.904;2022-09-27T14:13:50;4.93;;;0.80;;
51006;SDS011;37034;47.886;-3.904;2022-09-27T14:16:17;4.75;;;1.02;;
51006;SDS011;37034;47.886;-3.904;2022-09-27T14:18:46;4.13;;;0.95;;
51006;SDS011;37034;47.886;-3.904;2022-09-27T14:21:33;4.65;;;0.73;;
51006;SDS011;37034;47.886;-3.904;2022-09-27T14:27:33;4.15;;;0.95;;
51006;SDS011;37034;47.886;-3.904;2022-09-27T14:29:42;3.55;;;0.88;;
51006;SDS011;37034;47.886;-3.904;2022-09-27T14:32:20;2.45;;;0.70;;
51006;SDS011;37034;47.886;-3.904;2022-09-27T14:35:08;2.88;;;0.60;;
51006;SDS011;37034;47.886;-3.904;2022-09-27T14:38:12;2.70;;;0.45;;
51006;SDS011;37034;47.886;-3.904;2022-09-27T14:40:53;1.98;;;0.57;;
51006;SDS011;37034;47.886;-3.904;2022-09-27T14:43:23;1.45;;;0.40;;
51006;SDS011;37034;47.886;-3.904;2022-09-27T14:53:21;1.75;;;0.40;;
51006;SDS011;37034;47.886;-3.904;2022-09-27T14:55:48;2.42;;;0.47;;
51006;SDS011;37034;47.886;-3.904;2022-09-27T14:58:14;2.75;;;0.75;;
51006;SDS011;37034;47.886;-3.904;2022-09-27T15:00:44;2.42;;;0.60;;
51006;SDS011;37034;47.886;-3.904;2022-09-27T15:03:11;3.53;;;0.90;;
51006;SDS011;37034;47.886;-3.904;2022-09-27T15:05:44;4.05;;;0.82;;
51006;SDS011;37034;47.886;-3.904;2022-09-27T15:08:11;3.22;;;0.80;;
51006;SDS011;37034;47.886;-3.904;2022-09-27T15:10:39;4.05;;;0.70;;
51006;SDS011;37034;47.886;-3.904;2022-09-27T15:13:05;2.75;;;0.93;;
51006;SDS011;37034;47.886;-3.904;2022-09-27T15:15:32;2.80;;;0.50;;
51006;SDS011;37034;47.886;-3.904;2022-09-27T15:18:00;3.22;;;0.60;;
51006;SDS011;37034;47.886;-3.904;2022-09-27T15:20:29;3.45;;;0.75;;
51006;SDS011;37034;47.886;-3.904;2022-09-27T15:22:57;5.50;;;0.80;;
51006;SDS011;37034;47.886;-3.904;2022-09-27T15:25:25;7.13;;;1.40;;
51006;SDS011;37034;47.886;-3.904;2022-09-27T15:28:00;7.10;;;1.40;;
51006;SDS011;37034;47.886;-3.904;2022-09-27T15:30:32;8.40;;;1.40;;
51006;SDS011;37034;47.886;-3.904;2022-09-27T15:33:27;7.88;;;1.40;;
51006;SDS011;37034;47.886;-3.904;2022-09-27T15:35:53;6.30;;;1.50;;
51006;SDS011;37034;47.886;-3.904;2022-09-27T15:45:50;9.02;;;1.60;;
51006;SDS011;37034;47.886;-3.904;2022-09-27T15:48:17;12.80;;;1.95;;
51006;SDS011;37034;47.886;-3.904;2022-09-27T15:50:44;12.20;;;2.97;;
51006;SDS011;37034;47.886;-3.904;2022-09-27T15:53:11;12.82;;;1.90;;
51006;SDS011;37034;47.886;-3.904;2022-09-27T15:55:57;9.88;;;1.80;;
51006;SDS011;37034;47.886;-3.904;2022-09-27T15:58:23;11.80;;;2.75;;
51006;SDS011;37034;47.886;-3.904;2022-09-27T16:00:59;11.32;;;1.90;;
51006;SDS011;37034;47.886;-3.904;2022-09-27T16:03:27;12.05;;;2.22;;
51006;SDS011;37034;47.886;-3.904;2022-09-27T16:05:57;10.30;;;2.13;;
51006;SDS011;37034;47.886;-3.904;2022-09-27T16:08:26;10.38;;;2.05;;
51006;SDS011;37034;47.886;-3.904;2022-09-27T16:10:53;10.43;;;2.13;;
51006;SDS011;37034;47.886;-3.904;2022-09-27T16:13:21;12.20;;;2.45;;
51006;SDS011;37034;47.886;-3.904;2022-09-27T16:15:47;10.05;;;1.85;;
51006;SDS011;37034;47.886;-3.904;2022-09-27T16:18:14;8.32;;;1.75;;
51006;SDS011;37034;47.886;-3.904;2022-09-27T16:20:39;14.93;;;2.53;;
51006;SDS011;37034;47.886;-3.904;2022-09-27T16:23:05;12.73;;;2.38;;
51006;SDS011;37034;47.886;-3.904;2022-09-27T16:25:32;13.73;;;2.28;;
51006;SDS011;37034;47.886;-3.904;2022-09-27T16:28:01;13.32;;;2.40;;
51006;SDS011;37034;47.886;-3.904;2022-09-27T16:30:27;9.93;;;2.10;;
51006;SDS011;37034;47.886;-3.904;2022-09-27T16:32:54;12.40;;;1.98;;
51006;SDS011;37034;47.886;-3.904;2022-09-27T16:35:20;14.75;;;2.78;;
51006;SDS011;37034;47.886;-3.904;2022-09-27T16:37:47;14.45;;;2.05;;
51006;SDS011;37034;47.886;-3.904;2022-09-27T16:40:14;12.30;;;1.90;;
51006;SDS011;37034;47.886;-3.904;2022-09-27T16:42:42;11.45;;;2.53;;
51006;SDS011;37034;47.886;-3.904;2022-09-27T16:47:34;17.23;;;2.70;;
51006;SDS011;37034;47.886;-3.904;2022-09-27T16:50:00;15.40;;;2.75;;
51006;SDS011;37034;47.886;-3.904;2022-09-27T16:52:44;11.48;;;2.05;;
51006;SDS011;37034;47.886;-3.904;2022-09-27T16:55:11;18.10;;;2.40;;
51006;SDS011;37034;47.886;-3.904;2022-09-27T16:57:38;16.25;;;2.80;;
51006;SDS011;37034;47.886;-3.904;2022-09-27T17:00:04;13.40;;;2.20;;
51006;SDS011;37034;47.886;-3.904;2022-09-27T17:02:31;8.43;;;1.48;;
51006;SDS011;37034;47.886;-3.904;2022-09-27T17:04:57;11.18;;;2.22;;
51006;SDS011;37034;47.886;-3.904;2022-09-27T17:07:22;15.50;;;2.22;;
51006;SDS011;37034;47.886;-3.904;2022-09-27T17:09:49;12.65;;;1.95;;
51006;SDS011;37034;47.886;-3.904;2022-09-27T17:12:15;9.73;;;2.17;;
51006;SDS011;37034;47.886;-3.904;2022-09-27T17:14:40;8.75;;;1.73;;
51006;SDS011;37034;47.886;-3.904;2022-09-27T17:17:06;15.23;;;2.50;;
51006;SDS011;37034;47.886;-3.904;2022-09-27T17:19:32;13.98;;;2.50;;
51006;SDS011;37034;47.886;-3.904;2022-09-27T17:21:58;15.00;;;2.50;;
51006;SDS011;37034;47.886;-3.904;2022-09-27T17:24:24;16.55;;;3.10;;
51006;SDS011;37034;47.886;-3.904;2022-09-27T17:26:50;15.88;;;2.25;;
51006;SDS011;37034;47.886;-3.904;2022-09-27T17:29:16;13.63;;;2.42;;
51006;SDS011;37034;47.886;-3.904;2022-09-27T17:31:42;11.48;;;2.22;;
51006;SDS011;37034;47.886;-3.904;2022-09-27T17:36:39;15.13;;;2.55;;
51006;SDS011;37034;47.886;-3.904;2022-09-27T17:39:09;14.35;;;2.97;;
51006;SDS011;37034;47.886;-3.904;2022-09-27T17:41:37;11.38;;;1.77;;
51006;SDS011;37034;47.886;-3.904;2022-09-27T17:44:03;15.98;;;2.47;;
51006;SDS011;37034;47.886;-3.904;2022-09-27T17:46:30;15.73;;;2.00;;
51006;SDS011;37034;47.886;-3.904;2022-09-27T17:48:57;15.70;;;2.70;;
51006;SDS011;37034;47.886;-3.904;2022-09-27T17:51:41;16.17;;;3.67;;
51006;SDS011;37034;47.886;-3.904;2022-09-27T17:54:11;15.95;;;3.83;;
51006;SDS011;37034;47.886;-3.904;2022-09-27T17:56:37;16.30;;;4.18;;
51006;SDS011;37034;47.886;-3.904;2022-09-27T17:59:04;18.90;;;4.43;;
51006;SDS011;37034;47.886;-3.904;2022-09-27T18:01:31;18.55;;;4.82;;
51006;SDS011;37034;47.886;-3.904;2022-09-27T18:03:57;19.42;;;5.68;;
51006;SDS011;37034;47.886;-3.904;2022-09-27T18:06:24;17.35;;;3.55;;
51006;SDS011;37034;47.886;-3.904;2022-09-27T18:08:50;18.00;;;5.38;;
51006;SDS011;37034;47.886;-3.904;2022-09-27T18:11:19;24.48;;;2.88;;
51006;SDS011;37034;47.886;-3.904;2022-09-27T18:13:51;15.60;;;2.92;;
51006;SDS011;37034;47.886;-3.904;2022-09-27T18:16:22;19.58;;;3.78;;
51006;SDS011;37034;47.886;-3.904;2022-09-27T18:18:53;14.10;;;3.80;;
51006;SDS011;37034;47.886;-3.904;2022-09-27T18:21:20;18.42;;;3.53;;
51006;SDS011;37034;47.886;-3.904;2022-09-27T18:23:47;11.63;;;2.75;;
51006;SDS011;37034;47.886;-3.904;2022-09-27T18:26:16;17.30;;;2.60;;
51006;SDS011;37034;47.886;-3.904;2022-09-27T18:28:42;20.10;;;3.58;;
51006;SDS011;37034;47.886;-3.904;2022-09-27T18:31:09;19.30;;;3.90;;
51006;SDS011;37034;47.886;-3.904;2022-09-27T18:33:37;16.67;;;2.75;;
51006;SDS011;37034;47.886;-3.904;2022-09-27T18:36:04;17.88;;;3.95;;
51006;SDS011;37034;47.886;-3.904;2022-09-27T18:38:31;20.15;;;3.53;;